createdAt,value
2019-05-30T00:06:13.544Z,6.10
2019-05-30T00:16:14.610Z,6.67
2019-05-30T00:26:17.576Z,7.17
2019-05-30T00:36:19.023Z,7.00
2019-05-30T00:46:20.098Z,6.10
2019-05-30T00:56:21.152Z,6.93
2019-05-30T01:06:22.193Z,6.40
2019-05-30T01:16:23.210Z,7.10
2019-05-30T01:26:24.232Z,6.47
2019-05-30T01:36:27.371Z,6.57
2019-05-30T01:46:28.563Z,6.73
2019-05-30T01:56:30.005Z,6.60
2019-05-30T02:06:31.019Z,8.23
2019-05-30T02:16:32.041Z,8.00
2019-05-30T02:26:33.066Z,8.40
2019-05-30T02:36:34.077Z,9.40
2019-05-30T02:46:35.196Z,8.23
2019-05-30T02:56:36.257Z,7.77
2019-05-30T03:06:37.599Z,9.37
2019-05-30T03:16:38.803Z,9.87
2019-05-30T03:26:39.907Z,10.17
2019-05-30T03:36:41.165Z,9.20
2019-05-30T03:46:47.078Z,9.03
2019-05-30T03:57:01.083Z,8.60
2019-05-30T04:07:15.997Z,7.23
2019-05-30T04:17:38.383Z,7.57
2019-05-30T04:27:39.417Z,7.03
2019-05-30T04:37:40.465Z,7.47
2019-05-30T04:47:41.475Z,7.57
2019-05-30T04:57:42.525Z,8.23
2019-05-30T05:07:43.568Z,6.77
2019-05-30T05:17:44.710Z,7.07
2019-05-30T05:27:45.743Z,6.37
2019-05-30T05:37:46.788Z,6.43
2019-05-30T05:47:47.800Z,5.27
2019-05-30T05:57:48.880Z,4.33
2019-05-30T06:07:50.014Z,4.60
2019-05-30T06:17:51.020Z,3.87
2019-05-30T06:27:52.288Z,3.47
2019-05-30T06:37:53.360Z,4.08
2019-05-30T06:47:54.375Z,3.62
2019-05-30T06:57:55.523Z,3.05
2019-05-30T07:07:56.581Z,3.60
2019-05-30T07:17:57.818Z,3.52
2019-05-30T07:27:58.858Z,2.70
2019-05-30T07:37:59.937Z,3.80
2019-05-30T07:48:01.075Z,4.58
2019-05-30T07:58:02.377Z,4.15
2019-05-30T08:08:03.622Z,3.95
2019-05-30T08:18:04.642Z,4.08
2019-05-30T08:28:05.935Z,3.70
2019-05-30T08:38:07.596Z,2.90
2019-05-30T08:48:08.889Z,2.70
2019-05-30T08:58:10.084Z,2.87
2019-05-30T09:08:11.237Z,2.80
2019-05-30T09:18:12.268Z,3.10
2019-05-30T09:28:13.506Z,2.22
2019-05-30T09:38:14.766Z,2.45
2019-05-30T09:48:16.274Z,2.58
2019-05-30T09:58:18.434Z,2.55
2019-05-30T10:08:19.468Z,3.30
2019-05-30T10:18:20.713Z,3.35
2019-05-30T10:28:23.019Z,3.17
2019-05-30T10:38:26.106Z,2.60
2019-05-30T10:48:27.217Z,2.45
2019-05-30T10:58:28.296Z,2.35
2019-05-30T11:08:30.735Z,2.60
2019-05-30T11:18:31.739Z,2.67
2019-05-30T11:28:32.799Z,2.40
2019-05-30T11:38:33.944Z,2.50
2019-05-30T11:48:37.490Z,1.97
2019-05-30T11:58:38.663Z,2.07
2019-05-30T12:08:39.788Z,1.80
2019-05-30T12:18:40.881Z,2.07
2019-05-30T12:28:42.151Z,1.50
2019-05-30T12:38:43.185Z,1.90
2019-05-30T12:48:44.335Z,1.50
2019-05-30T12:58:45.524Z,1.60
2019-05-30T13:08:46.623Z,1.57
2019-05-30T13:18:47.892Z,1.63
2019-05-30T13:28:49.017Z,1.63
2019-05-30T13:38:50.124Z,3.40
2019-05-30T13:48:51.272Z,2.77
2019-05-30T13:58:52.328Z,1.87
2019-05-30T14:08:54.622Z,2.03
2019-05-30T14:18:55.654Z,3.80
2019-05-30T14:28:56.719Z,2.10
2019-05-30T14:38:59.082Z,1.70
2019-05-30T14:49:00.416Z,2.40
2019-05-30T14:59:01.493Z,1.80
2019-05-30T15:09:16.368Z,1.87
2019-05-30T15:19:08.465Z,1.90
2019-05-30T15:29:10.059Z,1.90
2019-05-30T15:39:11.360Z,1.70
2019-05-30T15:49:12.815Z,1.80
2019-05-30T15:59:14.100Z,2.17
2019-05-30T16:09:15.248Z,1.70
2019-05-30T16:19:22.004Z,2.50
2019-05-30T16:29:19.831Z,1.90
2019-05-30T16:39:22.497Z,2.00
2019-05-30T16:49:23.723Z,1.90
2019-05-30T16:59:24.879Z,2.80
2019-05-30T17:09:27.977Z,1.67
2019-05-30T17:19:28.962Z,2.03
2019-05-30T17:29:30.125Z,1.97
2019-05-30T17:39:31.139Z,2.63
2019-05-30T17:49:32.246Z,1.97
2019-05-30T17:59:33.305Z,2.70
2019-05-30T18:09:34.449Z,3.47
2019-05-30T18:19:35.470Z,2.30
2019-05-30T18:29:36.541Z,2.53
2019-05-30T18:39:37.642Z,2.37
2019-05-30T18:49:38.840Z,2.70
2019-05-30T18:59:39.991Z,2.73
2019-05-30T19:09:41.331Z,2.90
2019-05-30T19:19:43.370Z,2.77
2019-05-30T19:29:45.398Z,3.00
2019-05-30T19:39:46.446Z,2.90
2019-05-30T19:49:47.453Z,3.00
2019-05-30T19:59:48.597Z,4.23
2019-05-30T20:10:00.830Z,3.70
2019-05-30T20:19:54.869Z,3.30
2019-05-30T20:29:56.021Z,4.43
2019-05-30T20:39:57.042Z,4.93
2019-05-30T20:49:58.051Z,6.83
2019-05-30T20:59:59.075Z,11.10
2019-05-30T21:10:04.149Z,6.00
2019-05-30T21:20:10.808Z,6.73
2019-05-30T21:30:09.893Z,6.57
2019-05-30T21:40:11.528Z,6.37
2019-05-30T21:50:13.036Z,6.73
2019-05-30T22:00:19.372Z,6.23
2019-05-30T22:10:22.386Z,5.63
2019-05-30T22:20:23.514Z,5.03
2019-05-30T22:30:24.626Z,4.70
2019-05-30T22:40:25.752Z,5.50
2019-05-30T22:50:26.867Z,4.67
2019-05-30T23:00:28.874Z,4.20
2019-05-30T23:10:30.055Z,4.10
2019-05-30T23:20:32.222Z,4.00
2019-05-30T23:30:33.331Z,3.47
2019-05-30T23:40:35.185Z,3.80
2019-05-30T23:50:36.327Z,3.63
